createdAt,value
2023-05-19T00:01:49.159Z,14.88
2023-05-19T00:04:16.579Z,14.25
2023-05-19T00:09:12.639Z,9.88
2023-05-19T00:11:40.317Z,11.60
2023-05-19T00:14:09.554Z,13.20
2023-05-19T00:16:40.477Z,14.98
2023-05-19T00:19:10.246Z,15.85
2023-05-19T00:21:38.833Z,9.02
2023-05-19T00:24:07.614Z,9.43
2023-05-19T00:26:34.378Z,11.18
2023-05-19T00:29:00.949Z,13.40
2023-05-19T00:31:27.682Z,11.40
2023-05-19T00:33:54.377Z,12.55
2023-05-19T00:36:21.074Z,14.13
2023-05-19T00:38:47.577Z,11.33
2023-05-19T00:41:14.138Z,16.20
2023-05-19T00:43:40.628Z,12.03
2023-05-19T00:46:07.563Z,13.75
2023-05-19T00:48:34.218Z,14.48
2023-05-19T00:51:05.164Z,13.75
2023-05-19T00:53:33.526Z,16.77
2023-05-19T00:56:00.813Z,11.75
2023-05-19T00:58:30.305Z,16.20
2023-05-19T01:01:03.512Z,13.95
2023-05-19T01:03:32.169Z,11.38
2023-05-19T01:06:01.689Z,12.57
2023-05-19T01:08:31.701Z,13.88
2023-05-19T01:10:58.403Z,12.27
2023-05-19T01:13:25.640Z,13.80
2023-05-19T01:15:59.391Z,11.80
2023-05-19T01:18:41.872Z,13.63
2023-05-19T01:21:23.472Z,11.25
2023-05-19T01:24:14.345Z,15.15
2023-05-19T01:26:58.261Z,13.52
2023-05-19T01:29:37.037Z,12.15
2023-05-19T01:32:06.406Z,11.82
2023-05-19T01:34:38.891Z,12.85
2023-05-19T01:37:05.624Z,11.98
2023-05-19T01:39:33.384Z,14.57
2023-05-19T01:42:01.684Z,15.90
2023-05-19T01:44:29.200Z,20.67
2023-05-19T01:49:22.214Z,16.90
2023-05-19T01:51:49.430Z,13.10
2023-05-19T01:54:15.963Z,16.63
2023-05-19T01:56:53.716Z,16.63
2023-05-19T01:59:55.543Z,16.73
2023-05-19T02:02:46.985Z,12.00
2023-05-19T02:05:28.638Z,9.75
2023-05-19T02:08:17.108Z,15.98
2023-05-19T02:10:50.340Z,10.35
2023-05-19T02:13:20.501Z,14.38
2023-05-19T02:15:49.024Z,13.93
2023-05-19T02:18:18.080Z,16.15
2023-05-19T02:20:44.757Z,13.40
2023-05-19T02:23:11.202Z,13.73
2023-05-19T02:25:38.176Z,15.60
2023-05-19T02:28:04.887Z,13.23
2023-05-19T02:30:32.155Z,14.03
2023-05-19T02:35:25.451Z,18.73
2023-05-19T02:37:52.443Z,11.27
2023-05-19T02:40:19.109Z,18.15
2023-05-19T02:42:46.144Z,18.35
2023-05-19T02:45:12.610Z,13.95
2023-05-19T02:47:39.194Z,19.63
2023-05-19T02:50:06.271Z,17.70
2023-05-19T02:52:33.156Z,18.73
2023-05-19T02:55:00.131Z,18.35
2023-05-19T02:57:27.029Z,14.83
2023-05-19T02:59:53.486Z,17.13
2023-05-19T03:02:20.012Z,13.80
2023-05-19T03:04:46.649Z,23.23
2023-05-19T03:07:16.378Z,13.52
2023-05-19T03:09:42.848Z,15.23
2023-05-19T03:12:09.448Z,18.80
2023-05-19T03:14:39.290Z,14.90
2023-05-19T03:17:08.142Z,16.33
2023-05-19T03:19:34.932Z,19.92
2023-05-19T03:22:01.522Z,19.13
2023-05-19T03:24:28.048Z,14.82
2023-05-19T03:26:54.587Z,19.80
2023-05-19T03:29:21.547Z,17.30
2023-05-19T03:31:48.025Z,15.75
2023-05-19T03:34:14.612Z,15.20
2023-05-19T03:36:41.025Z,22.52
2023-05-19T03:39:07.560Z,17.42
2023-05-19T03:41:34.144Z,15.88
2023-05-19T03:44:06.703Z,16.48
2023-05-19T03:46:40.338Z,18.20
2023-05-19T03:49:07.563Z,13.27
2023-05-19T03:51:34.810Z,16.65
2023-05-19T03:54:04.529Z,21.00
2023-05-19T03:56:31.197Z,20.13
2023-05-19T03:59:12.817Z,13.17
2023-05-19T04:01:42.357Z,21.23
2023-05-19T04:04:10.994Z,14.18
2023-05-19T04:06:48.818Z,17.67
2023-05-19T04:09:16.494Z,18.10
2023-05-19T04:11:43.349Z,14.38
2023-05-19T04:14:10.018Z,16.50
2023-05-19T04:16:36.925Z,16.57
2023-05-19T04:19:07.868Z,12.02
2023-05-19T04:21:34.448Z,16.83
2023-05-19T04:24:06.559Z,16.13
2023-05-19T04:26:34.535Z,20.58
2023-05-19T04:29:04.480Z,17.77
2023-05-19T04:31:34.345Z,14.98
2023-05-19T04:34:03.433Z,18.50
2023-05-19T04:36:29.990Z,16.13
2023-05-19T04:39:02.351Z,17.85
2023-05-19T04:41:28.937Z,16.23
2023-05-19T04:43:58.877Z,17.70
2023-05-19T04:46:26.567Z,17.23
2023-05-19T04:48:57.334Z,20.40
2023-05-19T04:51:30.345Z,15.82
2023-05-19T04:54:01.568Z,16.80
2023-05-19T04:56:28.936Z,13.73
2023-05-19T04:58:55.599Z,21.38
2023-05-19T05:01:25.879Z,18.70
2023-05-19T05:03:55.856Z,17.23
2023-05-19T05:06:22.552Z,15.82
2023-05-19T05:08:49.519Z,13.83
2023-05-19T05:11:16.775Z,16.05
2023-05-19T05:13:47.322Z,16.38
2023-05-19T05:16:14.786Z,14.05
2023-05-19T05:18:44.387Z,13.80
2023-05-19T05:21:12.051Z,19.83
2023-05-19T05:23:38.868Z,12.23
2023-05-19T05:26:14.101Z,14.23
2023-05-19T05:28:41.596Z,14.20
2023-05-19T05:33:34.712Z,14.45
2023-05-19T05:36:01.280Z,19.07
2023-05-19T05:38:27.788Z,15.17
2023-05-19T05:40:54.380Z,14.57
2023-05-19T05:43:20.958Z,15.70
2023-05-19T05:45:49.614Z,13.93
2023-05-19T05:48:16.609Z,14.75
2023-05-19T05:50:45.456Z,16.63
2023-05-19T05:53:18.919Z,11.05
2023-05-19T05:55:49.222Z,13.23
2023-05-19T05:58:21.238Z,14.07
2023-05-19T06:00:51.410Z,16.40
2023-05-19T06:03:18.004Z,14.15
2023-05-19T06:05:47.903Z,13.48
2023-05-19T06:08:14.395Z,15.50
2023-05-19T06:10:44.553Z,8.90
2023-05-19T06:13:13.259Z,13.70
2023-05-19T06:18:12.585Z,16.35
2023-05-19T06:20:42.076Z,13.70
2023-05-19T06:23:12.412Z,13.25
2023-05-19T06:25:38.957Z,16.10
2023-05-19T06:28:06.009Z,13.10
2023-05-19T06:30:32.853Z,17.02
2023-05-19T06:32:59.598Z,10.27
2023-05-19T06:35:26.165Z,12.70
2023-05-19T06:37:56.807Z,12.03
2023-05-19T06:40:24.052Z,9.70
2023-05-19T06:42:55.852Z,9.32
2023-05-19T06:45:22.518Z,13.18
2023-05-19T06:47:49.378Z,11.18
2023-05-19T06:50:16.226Z,11.45
2023-05-19T06:52:44.431Z,10.60
2023-05-19T06:55:11.879Z,9.85
2023-05-19T07:00:10.463Z,12.38
2023-05-19T07:02:37.072Z,11.82
2023-05-19T07:05:06.085Z,9.15
2023-05-19T07:07:32.518Z,10.43
2023-05-19T07:09:59.017Z,12.05
2023-05-19T07:12:26.572Z,10.90
2023-05-19T07:14:55.222Z,10.93
2023-05-19T07:17:21.709Z,13.68
2023-05-19T07:19:48.340Z,8.07
2023-05-19T07:22:14.921Z,6.70
2023-05-19T07:24:44.789Z,10.68
2023-05-19T07:27:11.267Z,8.27
2023-05-19T07:29:38.783Z,8.00
2023-05-19T07:32:05.813Z,10.23
2023-05-19T07:34:32.296Z,10.52
2023-05-19T07:36:58.812Z,11.97
2023-05-19T07:39:29.618Z,11.87
2023-05-19T07:41:57.202Z,9.70
2023-05-19T07:44:23.795Z,8.55
2023-05-19T07:46:50.357Z,11.15
2023-05-19T07:49:24.089Z,9.68
2023-05-19T07:51:57.274Z,9.38
2023-05-19T07:54:23.782Z,6.47
2023-05-19T07:56:51.184Z,6.88
2023-05-19T07:59:20.797Z,9.93
2023-05-19T08:01:48.165Z,12.10
2023-05-19T08:04:15.996Z,7.20
2023-05-19T08:06:44.538Z,10.90
2023-05-19T08:09:11.931Z,9.52
2023-05-19T08:11:38.466Z,10.40
2023-05-19T08:14:05.070Z,14.95
2023-05-19T08:16:31.768Z,9.20
2023-05-19T08:19:01.068Z,7.60
2023-05-19T08:21:27.809Z,8.80
2023-05-19T08:23:54.358Z,7.80
2023-05-19T08:26:21.893Z,9.88
2023-05-19T08:28:48.503Z,8.70
2023-05-19T08:31:14.987Z,14.45
2023-05-19T08:33:41.813Z,10.90
2023-05-19T08:36:08.350Z,14.75
2023-05-19T08:38:34.810Z,10.35
2023-05-19T08:41:01.681Z,7.78
2023-05-19T08:43:28.281Z,8.00
2023-05-19T08:45:55.597Z,7.07
2023-05-19T08:48:22.468Z,6.35
2023-05-19T08:51:05.859Z,7.85
2023-05-19T08:53:38.057Z,7.05
2023-05-19T08:56:11.274Z,7.53
2023-05-19T08:58:43.653Z,7.65
2023-05-19T09:01:20.370Z,7.15
2023-05-19T09:03:49.717Z,8.30
2023-05-19T09:06:16.613Z,6.97
2023-05-19T09:08:47.108Z,9.55
2023-05-19T09:11:13.786Z,5.47
2023-05-19T09:13:40.352Z,12.60
2023-05-19T09:16:08.162Z,8.07
2023-05-19T09:18:40.882Z,6.30
2023-05-19T09:21:10.200Z,7.43
2023-05-19T09:23:36.857Z,7.82
2023-05-19T09:26:08.214Z,18.52
2023-05-19T09:28:36.480Z,9.38
2023-05-19T09:31:08.484Z,11.60
2023-05-19T09:33:38.634Z,9.07
2023-05-19T09:36:06.332Z,6.72
2023-05-19T09:38:33.033Z,9.27
2023-05-19T09:41:00.791Z,9.15
2023-05-19T09:43:29.458Z,8.20
2023-05-19T09:46:01.159Z,11.60
2023-05-19T09:48:27.985Z,7.38
2023-05-19T09:51:00.301Z,8.68
2023-05-19T09:53:31.250Z,6.78
2023-05-19T09:55:58.746Z,7.85
2023-05-19T09:58:27.967Z,6.10
2023-05-19T10:00:57.091Z,8.40
2023-05-19T10:03:25.187Z,11.07
2023-05-19T10:05:53.815Z,10.10
2023-05-19T10:08:21.847Z,7.85
2023-05-19T10:10:48.544Z,11.80
2023-05-19T10:13:19.525Z,6.90
2023-05-19T10:18:31.129Z,6.35
2023-05-19T10:21:00.670Z,7.00
2023-05-19T10:23:27.378Z,7.43
2023-05-19T10:25:59.820Z,10.55
2023-05-19T10:28:36.862Z,7.20
2023-05-19T10:31:07.738Z,10.75
2023-05-19T10:33:58.973Z,6.82
2023-05-19T10:36:44.857Z,8.43
2023-05-19T10:39:37.477Z,7.22
2023-05-19T10:42:16.000Z,8.13
2023-05-19T10:45:03.278Z,9.00
2023-05-19T10:47:30.371Z,6.72
2023-05-19T10:52:26.209Z,8.45
2023-05-19T10:54:54.936Z,7.07
2023-05-19T10:57:36.931Z,7.07
2023-05-19T11:00:26.487Z,7.30
2023-05-19T11:02:56.431Z,11.00
2023-05-19T11:05:29.013Z,7.78
2023-05-19T11:08:12.098Z,7.93
2023-05-19T11:10:39.010Z,8.13
2023-05-19T11:15:38.865Z,5.40
2023-05-19T11:18:07.705Z,6.30
2023-05-19T11:20:38.893Z,7.88
2023-05-19T11:23:07.250Z,8.77
2023-05-19T11:25:51.086Z,12.05
2023-05-19T11:28:28.208Z,10.07
2023-05-19T11:30:57.918Z,12.35
2023-05-19T11:33:34.633Z,8.25
2023-05-19T11:36:04.380Z,6.83
2023-05-19T11:38:34.809Z,5.95
2023-05-19T11:41:03.655Z,5.18
2023-05-19T11:43:31.028Z,9.27
2023-05-19T11:45:57.700Z,6.75
2023-05-19T11:48:34.430Z,12.27
2023-05-19T11:51:01.074Z,5.38
2023-05-19T11:53:36.045Z,6.97
2023-05-19T11:56:09.193Z,6.05
2023-05-19T11:58:37.336Z,9.15
2023-05-19T12:01:04.774Z,6.45
2023-05-19T12:03:33.093Z,9.20
2023-05-19T12:06:17.546Z,8.25
2023-05-19T12:08:45.639Z,5.55
2023-05-19T12:11:12.111Z,7.80
2023-05-19T12:13:42.907Z,5.57
2023-05-19T12:16:09.595Z,4.38
2023-05-19T12:21:06.980Z,10.50
2023-05-19T12:23:34.952Z,8.30
2023-05-19T12:26:14.792Z,9.20
2023-05-19T12:28:47.136Z,9.15
2023-05-19T12:31:13.680Z,5.40
2023-05-19T12:36:07.680Z,8.02
2023-05-19T12:38:37.355Z,7.50
2023-05-19T12:41:05.450Z,13.90
2023-05-19T12:43:33.372Z,7.45
2023-05-19T12:46:12.512Z,6.28
2023-05-19T12:48:46.736Z,8.35
2023-05-19T12:51:19.493Z,4.65
2023-05-19T12:53:47.452Z,11.02
2023-05-19T12:56:15.355Z,6.47
2023-05-19T12:58:42.774Z,5.10
2023-05-19T13:01:18.828Z,6.05
2023-05-19T13:03:46.008Z,9.80
2023-05-19T13:06:12.712Z,8.40
2023-05-19T13:08:42.082Z,9.75
2023-05-19T13:11:12.706Z,7.75
2023-05-19T13:13:39.275Z,10.13
2023-05-19T13:16:08.194Z,5.55
2023-05-19T13:18:37.794Z,9.57
2023-05-19T13:21:13.880Z,8.20
2023-05-19T13:23:41.570Z,6.43
2023-05-19T13:26:11.573Z,9.07
2023-05-19T13:28:38.019Z,10.35
2023-05-19T13:31:05.561Z,7.63
2023-05-19T13:33:32.180Z,9.90
2023-05-19T13:36:03.033Z,7.88
2023-05-19T13:38:30.612Z,7.70
2023-05-19T13:40:57.236Z,9.82
2023-05-19T13:43:23.686Z,7.53
2023-05-19T13:45:50.115Z,6.78
2023-05-19T13:48:16.660Z,7.50
2023-05-19T13:50:43.269Z,10.43
2023-05-19T13:53:11.294Z,7.22
2023-05-19T13:55:39.157Z,9.48
2023-05-19T13:58:05.737Z,6.78
2023-05-19T14:00:38.415Z,7.97
2023-05-19T14:03:16.124Z,8.93
2023-05-19T14:05:43.439Z,5.85
2023-05-19T14:08:19.040Z,8.85
2023-05-19T14:10:50.961Z,8.30
2023-05-19T14:13:32.522Z,5.72
2023-05-19T14:16:01.179Z,7.15
2023-05-19T14:18:27.663Z,4.30
2023-05-19T14:20:54.135Z,5.72
2023-05-19T14:23:23.852Z,6.32
2023-05-19T14:25:50.336Z,4.55
2023-05-19T14:28:19.794Z,7.95
2023-05-19T14:30:48.061Z,6.38
2023-05-19T14:33:14.767Z,6.80
2023-05-19T14:35:41.242Z,4.72
2023-05-19T14:38:14.716Z,6.75
2023-05-19T14:40:48.489Z,10.88
2023-05-19T14:43:14.981Z,7.25
2023-05-19T14:45:44.659Z,16.88
2023-05-19T14:48:11.964Z,14.63
2023-05-19T14:50:39.826Z,10.02
2023-05-19T14:53:06.287Z,10.18
2023-05-19T14:55:32.797Z,6.88
2023-05-19T14:57:59.322Z,9.75
2023-05-19T15:00:28.439Z,10.02
2023-05-19T15:02:56.132Z,5.75
2023-05-19T15:05:24.256Z,7.03
2023-05-19T15:07:51.453Z,8.32
2023-05-19T15:10:22.474Z,5.78
2023-05-19T15:12:50.265Z,8.88
2023-05-19T15:15:17.294Z,6.93
2023-05-19T15:17:45.820Z,6.25
2023-05-19T15:20:12.541Z,7.35
2023-05-19T15:22:39.136Z,7.28
2023-05-19T15:25:11.714Z,5.22
2023-05-19T15:27:38.322Z,7.95
2023-05-19T15:30:07.258Z,10.05
2023-05-19T15:32:35.847Z,13.73
2023-05-19T15:35:02.433Z,6.93
2023-05-19T15:37:28.957Z,9.10
2023-05-19T15:40:03.628Z,7.18
2023-05-19T15:42:30.232Z,7.32
2023-05-19T15:44:56.829Z,7.22
2023-05-19T15:47:23.396Z,8.30
2023-05-19T15:49:49.869Z,6.70
2023-05-19T15:52:16.614Z,7.32
2023-05-19T15:54:43.386Z,6.70
2023-05-19T15:57:09.985Z,10.15
2023-05-19T15:59:37.590Z,13.25
2023-05-19T16:02:04.330Z,7.47
2023-05-19T16:04:31.182Z,6.45
2023-05-19T16:06:58.085Z,3.88
2023-05-19T16:09:28.675Z,5.82
2023-05-19T16:11:56.387Z,4.93
2023-05-19T16:14:37.073Z,6.32
2023-05-19T16:17:04.848Z,5.78
2023-05-19T16:19:31.989Z,7.47
2023-05-19T16:21:58.870Z,6.05
2023-05-19T16:26:53.671Z,4.95
2023-05-19T16:29:20.387Z,5.45
2023-05-19T16:34:14.304Z,9.73
2023-05-19T16:36:50.740Z,4.07
2023-05-19T16:39:17.240Z,4.85
2023-05-19T16:41:43.705Z,7.45
2023-05-19T16:44:18.402Z,7.65
2023-05-19T16:46:44.898Z,12.77
2023-05-19T16:49:11.463Z,8.98
2023-05-19T16:51:37.889Z,4.15
2023-05-19T16:54:05.556Z,6.63
2023-05-19T16:56:32.237Z,8.88
2023-05-19T16:58:58.936Z,5.65
2023-05-19T17:01:25.632Z,4.35
2023-05-19T17:03:52.201Z,5.25
2023-05-19T17:06:25.393Z,5.28
2023-05-19T17:08:51.845Z,6.45
2023-05-19T17:11:18.436Z,8.13
2023-05-19T17:13:46.384Z,11.02
2023-05-19T17:16:13.115Z,4.28
2023-05-19T17:18:42.060Z,4.78
2023-05-19T17:21:08.647Z,8.02
2023-05-19T17:23:36.066Z,4.28
2023-05-19T17:26:02.662Z,7.55
2023-05-19T17:28:38.091Z,4.47
2023-05-19T17:33:56.371Z,5.55
2023-05-19T17:36:22.938Z,6.40
2023-05-19T17:38:50.923Z,4.22
2023-05-19T17:41:17.466Z,8.07
2023-05-19T17:43:45.382Z,7.13
2023-05-19T17:46:12.188Z,4.85
2023-05-19T17:48:39.955Z,5.07
2023-05-19T17:51:09.519Z,9.18
2023-05-19T17:53:36.715Z,5.22
2023-05-19T17:56:06.619Z,5.15
2023-05-19T17:58:33.691Z,4.55
2023-05-19T18:03:27.097Z,3.60
2023-05-19T18:08:22.713Z,5.20
2023-05-19T18:10:52.846Z,6.45
2023-05-19T18:13:19.449Z,4.88
2023-05-19T18:15:46.294Z,6.85
2023-05-19T18:18:12.941Z,6.25
2023-05-19T18:20:44.410Z,5.07
2023-05-19T18:23:11.437Z,3.92
2023-05-19T18:28:18.301Z,5.72
2023-05-19T18:30:45.063Z,6.45
2023-05-19T18:33:12.036Z,4.93
2023-05-19T18:35:38.620Z,7.35
2023-05-19T18:38:05.170Z,5.07
2023-05-19T18:40:35.693Z,7.25
2023-05-19T18:43:02.359Z,5.95
2023-05-19T18:45:28.850Z,4.70
2023-05-19T18:48:01.577Z,5.88
2023-05-19T18:50:28.327Z,4.50
2023-05-19T18:52:56.019Z,8.20
2023-05-19T18:55:23.804Z,7.85
2023-05-19T18:57:51.488Z,7.97
2023-05-19T19:00:18.725Z,4.20
2023-05-19T19:02:48.892Z,6.95
2023-05-19T19:05:16.571Z,5.05
2023-05-19T19:07:44.758Z,8.98
2023-05-19T19:10:11.697Z,7.40
2023-05-19T19:12:38.966Z,4.60
2023-05-19T19:15:06.096Z,5.25
2023-05-19T19:19:59.037Z,6.70
2023-05-19T19:22:26.651Z,4.32
2023-05-19T19:24:53.233Z,4.75
2023-05-19T19:27:24.762Z,5.82
2023-05-19T19:29:51.280Z,7.72
2023-05-19T19:32:17.768Z,4.93
2023-05-19T19:34:45.499Z,4.50
2023-05-19T19:37:18.125Z,4.97
2023-05-19T19:39:44.779Z,5.55
2023-05-19T19:42:11.716Z,5.10
2023-05-19T19:44:38.346Z,5.05
2023-05-19T19:47:07.361Z,5.78
2023-05-19T19:49:34.073Z,8.82
2023-05-19T19:52:00.903Z,6.55
2023-05-19T19:54:28.688Z,3.92
2023-05-19T19:56:58.575Z,4.53
2023-05-19T19:59:26.964Z,6.85
2023-05-19T20:01:53.727Z,5.97
2023-05-19T20:04:20.787Z,7.28
2023-05-19T20:06:47.394Z,8.38
2023-05-19T20:09:14.625Z,4.70
2023-05-19T20:11:41.248Z,4.68
2023-05-19T20:14:08.447Z,4.35
2023-05-19T20:19:09.535Z,4.82
2023-05-19T20:21:37.693Z,5.35
2023-05-19T20:24:04.591Z,7.88
2023-05-19T20:26:31.459Z,4.30
2023-05-19T20:28:59.802Z,6.95
2023-05-19T20:31:26.611Z,7.32
2023-05-19T20:33:53.216Z,4.45
2023-05-19T20:36:19.827Z,6.97
2023-05-19T20:38:47.921Z,7.32
2023-05-19T20:41:14.864Z,13.13
2023-05-19T20:43:41.437Z,3.67
2023-05-19T20:46:08.028Z,9.30
2023-05-19T20:48:34.504Z,4.63
2023-05-19T20:51:01.320Z,8.48
2023-05-19T20:53:27.878Z,7.78
2023-05-19T20:55:54.473Z,9.95
2023-05-19T20:58:21.346Z,7.35
2023-05-19T21:00:53.436Z,12.40
2023-05-19T21:03:21.516Z,9.63
2023-05-19T21:05:49.799Z,7.07
2023-05-19T21:08:16.443Z,8.17
2023-05-19T21:10:42.915Z,6.63
2023-05-19T21:13:12.109Z,9.52
2023-05-19T21:15:38.634Z,8.73
2023-05-19T21:18:07.235Z,7.20
2023-05-19T21:20:34.228Z,10.90
2023-05-19T21:25:27.919Z,11.35
2023-05-19T21:27:56.003Z,8.45
2023-05-19T21:30:23.607Z,8.15
2023-05-19T21:32:50.424Z,13.07
2023-05-19T21:35:17.165Z,7.28
2023-05-19T21:37:43.659Z,12.82
2023-05-19T21:40:10.593Z,9.32
2023-05-19T21:42:37.060Z,11.38
2023-05-19T21:45:03.885Z,8.90
2023-05-19T21:47:30.774Z,8.82
2023-05-19T21:49:57.489Z,9.82
2023-05-19T21:52:24.530Z,8.80
2023-05-19T21:54:52.013Z,14.70
2023-05-19T21:57:18.746Z,9.35
2023-05-19T21:59:45.281Z,11.30
2023-05-19T22:02:11.798Z,10.90
2023-05-19T22:04:38.644Z,10.48
2023-05-19T22:07:08.263Z,11.70
2023-05-19T22:09:34.784Z,9.50
2023-05-19T22:12:01.366Z,7.18
2023-05-19T22:14:27.873Z,7.55
2023-05-19T22:16:54.468Z,8.38
2023-05-19T22:19:21.122Z,10.05
2023-05-19T22:21:48.272Z,10.32
2023-05-19T22:24:16.126Z,9.18
2023-05-19T22:26:42.982Z,10.68
2023-05-19T22:29:15.097Z,13.02
2023-05-19T22:31:42.101Z,12.20
2023-05-19T22:34:08.660Z,6.95
2023-05-19T22:36:35.150Z,8.43
2023-05-19T22:39:01.602Z,9.77
2023-05-19T22:41:28.074Z,8.43
2023-05-19T22:43:54.531Z,8.53
2023-05-19T22:46:21.023Z,12.07
2023-05-19T22:48:48.494Z,15.23
2023-05-19T22:51:15.163Z,9.52
2023-05-19T22:53:42.605Z,7.40
2023-05-19T22:58:35.595Z,10.32
2023-05-19T23:01:02.136Z,9.38
2023-05-19T23:03:28.625Z,9.32
2023-05-19T23:05:55.322Z,10.50
2023-05-19T23:08:21.849Z,9.20
2023-05-19T23:10:48.621Z,13.80
2023-05-19T23:13:15.507Z,14.98
2023-05-19T23:15:41.993Z,8.60
2023-05-19T23:18:11.665Z,9.60
2023-05-19T23:20:38.211Z,12.38
2023-05-19T23:23:04.947Z,11.70
2023-05-19T23:25:32.036Z,8.88
2023-05-19T23:30:25.350Z,14.18
2023-05-19T23:32:52.948Z,10.40
2023-05-19T23:37:47.041Z,10.93
2023-05-19T23:40:14.011Z,15.37
2023-05-19T23:42:40.577Z,11.48
2023-05-19T23:45:07.844Z,12.27
2023-05-19T23:50:01.208Z,10.05
2023-05-19T23:52:27.734Z,7.15
2023-05-19T23:54:54.211Z,10.30
2023-05-19T23:57:20.724Z,11.97
2023-05-19T23:59:47.341Z,11.53
